Airfield :
LOGIN :

Register | Disclaimer

   EN    FR    IT 

 










Legend :    VFR   Marginal VFR   IFR   Intensive IFR   Very Intensive IFR
Visi :
Ceiling :
>= 8 km
>= 3000ft
5 to 8 km
1000 to 3000 ft
1500m to 5 km
500 to 1000 ft
800 to 1500m
200 to 500 ft
< 800m
< 200 ft
Symbols :   Thunderstorms  Fog  Heavy snow  Heavy precipitations  Wind > 20 kt
SIGMETs :     Misc.  Thunderstorms  Icing  Turbulence  Mountain Waves  Volcanic Ashes






- Airport Elevation : 314 ft
- IATA code : OTP


LROP - Bucarest - Henri Coanda

CURRENT METAR :
  • 192000Z 01004KT 340V050 CAVOK 24/20 Q1014 NOSIG

EXPIRED METARs :
  • 191930Z 36006KT CAVOK 24/20 Q1013 NOSIG
  • 191900Z 02004KT CAVOK 23/20 Q1013 NOSIG
  • 191830Z 36007KT CAVOK 24/20 Q1013 NOSIG
  • 191800Z 34007KT CAVOK 24/21 Q1013 NOSIG
  • 191730Z VRB02KT CAVOK 24/20 Q1013 NOSIG
  • 191700Z 08005KT CAVOK 27/18 Q1013 NOSIG
  • 191630Z 09008KT CAVOK 26/19 Q1013 NOSIG
  • 191600Z 09007KT 9999 FEW044CB 27/21 Q1013 NOSIG

TAF TAF LROP
Valid from the 19 at 18:00 until the 20 at 18:00 UTC


191700Z 1918/2018 09007KT CAVOK
TEMPO 1919/1923 5000 TSRA SCT040CB



MET'MAP, your aeronautical weather chart ! - Copyright ORBIFLY December 2007 - Disclaimer

ORBIFLY MET'MAP TEAM :

Programming & Development : Alexandra Zaïnal
Original concept : Baudouin d'Aumeries
Technical & hardware support : Manuel Goepfert
Assistance : Marc-Olivier Méhu




SOURCES & CREDITS :

   NOAA